sensor_id;sensor_type;location;lat;lon;timestamp;P1;durP1;ratioP1;P2;durP2;ratioP2
12433;SDS011;6281;49.038;8.372;2022-08-19T00:01:20;17.23;;;15.33;;
12433;SDS011;6281;49.038;8.372;2022-08-19T00:03:48;18.73;;;16.60;;
12433;SDS011;6281;49.038;8.372;2022-08-19T00:06:15;20.23;;;15.73;;
12433;SDS011;6281;49.038;8.372;2022-08-19T00:08:43;18.67;;;15.43;;
12433;SDS011;6281;49.038;8.372;2022-08-19T00:11:10;18.83;;;15.67;;
12433;SDS011;6281;49.038;8.372;2022-08-19T00:13:38;16.70;;;14.90;;
12433;SDS011;6281;49.038;8.372;2022-08-19T00:16:05;17.60;;;15.70;;
12433;SDS011;6281;49.038;8.372;2022-08-19T00:18:32;17.97;;;15.43;;
12433;SDS011;6281;49.038;8.372;2022-08-19T00:20:59;17.27;;;14.60;;
12433;SDS011;6281;49.038;8.372;2022-08-19T00:23:26;16.57;;;14.80;;
12433;SDS011;6281;49.038;8.372;2022-08-19T00:25:55;16.50;;;14.60;;
12433;SDS011;6281;49.038;8.372;2022-08-19T00:28:22;16.20;;;14.50;;
12433;SDS011;6281;49.038;8.372;2022-08-19T00:30:49;17.37;;;15.57;;
12433;SDS011;6281;49.038;8.372;2022-08-19T00:33:18;16.60;;;14.63;;
12433;SDS011;6281;49.038;8.372;2022-08-19T00:35:45;16.90;;;15.23;;
12433;SDS011;6281;49.038;8.372;2022-08-19T00:38:12;18.63;;;14.80;;
12433;SDS011;6281;49.038;8.372;2022-08-19T00:40:39;16.40;;;14.70;;
12433;SDS011;6281;49.038;8.372;2022-08-19T00:43:10;16.80;;;15.00;;
12433;SDS011;6281;49.038;8.372;2022-08-19T00:45:38;17.93;;;14.50;;
12433;SDS011;6281;49.038;8.372;2022-08-19T00:48:06;15.73;;;14.13;;
12433;SDS011;6281;49.038;8.372;2022-08-19T00:50:34;16.10;;;14.40;;
12433;SDS011;6281;49.038;8.372;2022-08-19T00:53:01;16.47;;;14.63;;
12433;SDS011;6281;49.038;8.372;2022-08-19T00:55:30;17.03;;;15.07;;
12433;SDS011;6281;49.038;8.372;2022-08-19T00:58:00;15.73;;;14.13;;
12433;SDS011;6281;49.038;8.372;2022-08-19T01:00:31;17.60;;;15.20;;
12433;SDS011;6281;49.038;8.372;2022-08-19T01:03:01;17.30;;;14.50;;
12433;SDS011;6281;49.038;8.372;2022-08-19T01:05:29;17.23;;;14.37;;
12433;SDS011;6281;49.038;8.372;2022-08-19T01:07:56;17.27;;;15.10;;
12433;SDS011;6281;49.038;8.372;2022-08-19T01:10:25;16.30;;;14.60;;
12433;SDS011;6281;49.038;8.372;2022-08-19T01:12:55;18.00;;;15.73;;
12433;SDS011;6281;49.038;8.372;2022-08-19T01:15:26;16.70;;;14.90;;
12433;SDS011;6281;49.038;8.372;2022-08-19T01:17:59;17.27;;;15.10;;
12433;SDS011;6281;49.038;8.372;2022-08-19T01:20:27;16.40;;;14.67;;
12433;SDS011;6281;49.038;8.372;2022-08-19T01:22:57;18.13;;;15.10;;
12433;SDS011;6281;49.038;8.372;2022-08-19T01:25:26;19.17;;;15.27;;
12433;SDS011;6281;49.038;8.372;2022-08-19T01:27:56;17.60;;;14.40;;
12433;SDS011;6281;49.038;8.372;2022-08-19T01:30:24;17.43;;;15.47;;
12433;SDS011;6281;49.038;8.372;2022-08-19T01:32:54;17.23;;;14.57;;
12433;SDS011;6281;49.038;8.372;2022-08-19T01:35:21;17.43;;;15.60;;
12433;SDS011;6281;49.038;8.372;2022-08-19T01:37:50;17.17;;;14.80;;
12433;SDS011;6281;49.038;8.372;2022-08-19T01:40:20;17.00;;;15.20;;
12433;SDS011;6281;49.038;8.372;2022-08-19T01:42:50;16.37;;;14.33;;
12433;SDS011;6281;49.038;8.372;2022-08-19T01:45:18;16.77;;;15.07;;
12433;SDS011;6281;49.038;8.372;2022-08-19T01:47:47;17.73;;;15.13;;
12433;SDS011;6281;49.038;8.372;2022-08-19T01:50:15;17.03;;;14.97;;
12433;SDS011;6281;49.038;8.372;2022-08-19T01:52:42;16.47;;;14.77;;
12433;SDS011;6281;49.038;8.372;2022-08-19T01:55:11;16.60;;;14.93;;
12433;SDS011;6281;49.038;8.372;2022-08-19T01:57:42;18.00;;;15.77;;
12433;SDS011;6281;49.038;8.372;2022-08-19T02:00:13;20.00;;;16.23;;
12433;SDS011;6281;49.038;8.372;2022-08-19T02:02:41;17.63;;;15.83;;
12433;SDS011;6281;49.038;8.372;2022-08-19T02:05:08;17.60;;;15.90;;
12433;SDS011;6281;49.038;8.372;2022-08-19T02:07:36;18.87;;;16.70;;
12433;SDS011;6281;49.038;8.372;2022-08-19T02:10:03;19.03;;;17.03;;
12433;SDS011;6281;49.038;8.372;2022-08-19T02:12:32;19.63;;;17.53;;
12433;SDS011;6281;49.038;8.372;2022-08-19T02:15:00;20.23;;;18.13;;
12433;SDS011;6281;49.038;8.372;2022-08-19T02:17:28;20.03;;;17.90;;
12433;SDS011;6281;49.038;8.372;2022-08-19T02:19:56;20.13;;;17.97;;
12433;SDS011;6281;49.038;8.372;2022-08-19T02:22:23;17.67;;;15.73;;
12433;SDS011;6281;49.038;8.372;2022-08-19T02:24:50;19.50;;;16.77;;
12433;SDS011;6281;49.038;8.372;2022-08-19T02:27:17;19.63;;;17.63;;
12433;SDS011;6281;49.038;8.372;2022-08-19T02:29:45;18.77;;;16.80;;
12433;SDS011;6281;49.038;8.372;2022-08-19T02:32:15;19.40;;;17.07;;
12433;SDS011;6281;49.038;8.372;2022-08-19T02:34:43;18.80;;;17.00;;
12433;SDS011;6281;49.038;8.372;2022-08-19T02:37:10;17.90;;;16.00;;
12433;SDS011;6281;49.038;8.372;2022-08-19T02:39:57;16.83;;;15.10;;
12433;SDS011;6281;49.038;8.372;2022-08-19T02:42:24;16.53;;;14.87;;
12433;SDS011;6281;49.038;8.372;2022-08-19T02:44:51;19.23;;;17.23;;
12433;SDS011;6281;49.038;8.372;2022-08-19T02:47:20;18.67;;;16.67;;
12433;SDS011;6281;49.038;8.372;2022-08-19T02:49:47;17.53;;;15.73;;
12433;SDS011;6281;49.038;8.372;2022-08-19T02:52:14;19.00;;;17.00;;
12433;SDS011;6281;49.038;8.372;2022-08-19T02:54:41;18.33;;;16.43;;
12433;SDS011;6281;49.038;8.372;2022-08-19T02:57:09;19.30;;;17.33;;
12433;SDS011;6281;49.038;8.372;2022-08-19T02:59:39;18.93;;;16.57;;
12433;SDS011;6281;49.038;8.372;2022-08-19T03:02:06;18.53;;;15.83;;
12433;SDS011;6281;49.038;8.372;2022-08-19T03:04:34;18.37;;;16.47;;
12433;SDS011;6281;49.038;8.372;2022-08-19T03:07:01;18.87;;;16.83;;
12433;SDS011;6281;49.038;8.372;2022-08-19T03:09:28;18.10;;;16.27;;
12433;SDS011;6281;49.038;8.372;2022-08-19T03:11:55;20.13;;;17.97;;
12433;SDS011;6281;49.038;8.372;2022-08-19T03:14:22;19.67;;;16.57;;
12433;SDS011;6281;49.038;8.372;2022-08-19T03:16:50;19.53;;;17.43;;
12433;SDS011;6281;49.038;8.372;2022-08-19T03:19:18;19.23;;;17.33;;
12433;SDS011;6281;49.038;8.372;2022-08-19T03:21:49;18.83;;;16.80;;
12433;SDS011;6281;49.038;8.372;2022-08-19T03:24:16;17.90;;;16.20;;
12433;SDS011;6281;49.038;8.372;2022-08-19T03:26:46;18.80;;;16.43;;
12433;SDS011;6281;49.038;8.372;2022-08-19T03:29:14;19.00;;;16.93;;
12433;SDS011;6281;49.038;8.372;2022-08-19T03:31:42;19.03;;;17.03;;
12433;SDS011;6281;49.038;8.372;2022-08-19T03:34:09;20.00;;;17.93;;
12433;SDS011;6281;49.038;8.372;2022-08-19T03:36:37;18.57;;;16.77;;
12433;SDS011;6281;49.038;8.372;2022-08-19T03:39:06;20.03;;;17.90;;
12433;SDS011;6281;49.038;8.372;2022-08-19T03:41:38;19.43;;;17.43;;
12433;SDS011;6281;49.038;8.372;2022-08-19T03:44:06;24.00;;;17.57;;
12433;SDS011;6281;49.038;8.372;2022-08-19T03:46:34;20.23;;;18.13;;
12433;SDS011;6281;49.038;8.372;2022-08-19T03:49:02;22.60;;;19.73;;
12433;SDS011;6281;49.038;8.372;2022-08-19T03:51:32;21.03;;;18.93;;
12433;SDS011;6281;49.038;8.372;2022-08-19T03:54:02;22.33;;;20.03;;
12433;SDS011;6281;49.038;8.372;2022-08-19T03:56:32;21.37;;;18.57;;
12433;SDS011;6281;49.038;8.372;2022-08-19T03:59:00;20.10;;;18.00;;
12433;SDS011;6281;49.038;8.372;2022-08-19T04:01:28;21.03;;;19.00;;
12433;SDS011;6281;49.038;8.372;2022-08-19T04:03:56;21.27;;;19.07;;
12433;SDS011;6281;49.038;8.372;2022-08-19T04:06:23;22.37;;;19.93;;
12433;SDS011;6281;49.038;8.372;2022-08-19T04:08:53;22.27;;;19.40;;
12433;SDS011;6281;49.038;8.372;2022-08-19T04:11:22;21.47;;;19.30;;
12433;SDS011;6281;49.038;8.372;2022-08-19T04:13:52;21.47;;;19.20;;
12433;SDS011;6281;49.038;8.372;2022-08-19T04:16:20;22.83;;;20.33;;
12433;SDS011;6281;49.038;8.372;2022-08-19T04:18:48;22.40;;;20.10;;
12433;SDS011;6281;49.038;8.372;2022-08-19T04:21:16;22.90;;;20.37;;
12433;SDS011;6281;49.038;8.372;2022-08-19T04:23:45;23.23;;;20.73;;
12433;SDS011;6281;49.038;8.372;2022-08-19T04:26:12;22.83;;;20.43;;
12433;SDS011;6281;49.038;8.372;2022-08-19T04:28:40;24.93;;;20.67;;
12433;SDS011;6281;49.038;8.372;2022-08-19T04:31:11;24.40;;;21.90;;
12433;SDS011;6281;49.038;8.372;2022-08-19T04:33:39;22.30;;;19.87;;
12433;SDS011;6281;49.038;8.372;2022-08-19T04:36:06;23.77;;;21.13;;
12433;SDS011;6281;49.038;8.372;2022-08-19T04:38:35;23.13;;;20.73;;
12433;SDS011;6281;49.038;8.372;2022-08-19T04:41:02;22.87;;;20.47;;
12433;SDS011;6281;49.038;8.372;2022-08-19T04:43:47;22.60;;;20.10;;
12433;SDS011;6281;49.038;8.372;2022-08-19T04:46:16;24.37;;;20.97;;
12433;SDS011;6281;49.038;8.372;2022-08-19T04:48:45;23.03;;;20.53;;
12433;SDS011;6281;49.038;8.372;2022-08-19T04:51:12;22.27;;;19.97;;
12433;SDS011;6281;49.038;8.372;2022-08-19T04:53:40;21.20;;;18.80;;
12433;SDS011;6281;49.038;8.372;2022-08-19T04:56:09;23.83;;;20.73;;
12433;SDS011;6281;49.038;8.372;2022-08-19T04:58:38;22.47;;;20.10;;
12433;SDS011;6281;49.038;8.372;2022-08-19T05:01:07;22.63;;;20.23;;
12433;SDS011;6281;49.038;8.372;2022-08-19T05:03:36;23.27;;;19.93;;
12433;SDS011;6281;49.038;8.372;2022-08-19T05:06:05;23.40;;;19.63;;
12433;SDS011;6281;49.038;8.372;2022-08-19T05:08:33;22.23;;;19.43;;
12433;SDS011;6281;49.038;8.372;2022-08-19T05:11:01;22.53;;;20.13;;
12433;SDS011;6281;49.038;8.372;2022-08-19T05:13:33;21.87;;;19.57;;
12433;SDS011;6281;49.038;8.372;2022-08-19T05:16:00;26.00;;;19.63;;
12433;SDS011;6281;49.038;8.372;2022-08-19T05:18:27;22.37;;;17.97;;
12433;SDS011;6281;49.038;8.372;2022-08-19T05:21:13;20.97;;;18.77;;
12433;SDS011;6281;49.038;8.372;2022-08-19T05:24:00;21.17;;;18.80;;
12433;SDS011;6281;49.038;8.372;2022-08-19T05:26:28;22.83;;;19.40;;
12433;SDS011;6281;49.038;8.372;2022-08-19T05:28:54;20.63;;;18.50;;
12433;SDS011;6281;49.038;8.372;2022-08-19T05:31:21;20.43;;;18.23;;
12433;SDS011;6281;49.038;8.372;2022-08-19T05:33:48;20.57;;;18.57;;
12433;SDS011;6281;49.038;8.372;2022-08-19T05:36:17;20.40;;;18.30;;
12433;SDS011;6281;49.038;8.372;2022-08-19T05:38:44;20.60;;;18.33;;
12433;SDS011;6281;49.038;8.372;2022-08-19T05:41:12;20.70;;;18.47;;
12433;SDS011;6281;49.038;8.372;2022-08-19T05:43:41;20.53;;;18.43;;
12433;SDS011;6281;49.038;8.372;2022-08-19T05:49:34;20.93;;;18.73;;
12433;SDS011;6281;49.038;8.372;2022-08-19T05:52:04;20.23;;;18.00;;
12433;SDS011;6281;49.038;8.372;2022-08-19T05:54:32;20.67;;;18.57;;
12433;SDS011;6281;49.038;8.372;2022-08-19T05:57:00;21.43;;;18.67;;
12433;SDS011;6281;49.038;8.372;2022-08-19T05:59:28;19.10;;;17.20;;
12433;SDS011;6281;49.038;8.372;2022-08-19T06:01:55;20.97;;;18.27;;
12433;SDS011;6281;49.038;8.372;2022-08-19T06:04:22;19.77;;;17.83;;
12433;SDS011;6281;49.038;8.372;2022-08-19T06:06:50;19.17;;;17.17;;
12433;SDS011;6281;49.038;8.372;2022-08-19T06:09:20;20.67;;;18.47;;
12433;SDS011;6281;49.038;8.372;2022-08-19T06:11:48;20.63;;;18.57;;
12433;SDS011;6281;49.038;8.372;2022-08-19T06:14:19;19.20;;;17.30;;
12433;SDS011;6281;49.038;8.372;2022-08-19T06:16:48;20.73;;;17.77;;
12433;SDS011;6281;49.038;8.372;2022-08-19T06:19:17;18.77;;;16.77;;
12433;SDS011;6281;49.038;8.372;2022-08-19T06:21:47;18.90;;;16.97;;
12433;SDS011;6281;49.038;8.372;2022-08-19T06:24:19;20.93;;;17.37;;
12433;SDS011;6281;49.038;8.372;2022-08-19T06:26:49;19.17;;;17.07;;
12433;SDS011;6281;49.038;8.372;2022-08-19T06:29:18;20.63;;;16.80;;
12433;SDS011;6281;49.038;8.372;2022-08-19T06:31:47;19.73;;;17.80;;
12433;SDS011;6281;49.038;8.372;2022-08-19T06:34:16;20.00;;;17.17;;
12433;SDS011;6281;49.038;8.372;2022-08-19T06:36:45;17.23;;;15.53;;
12433;SDS011;6281;49.038;8.372;2022-08-19T06:39:14;18.57;;;16.67;;
12433;SDS011;6281;49.038;8.372;2022-08-19T06:41:44;18.77;;;16.47;;
12433;SDS011;6281;49.038;8.372;2022-08-19T06:44:12;17.93;;;16.03;;
12433;SDS011;6281;49.038;8.372;2022-08-19T06:46:40;18.90;;;16.80;;
12433;SDS011;6281;49.038;8.372;2022-08-19T06:49:07;18.53;;;16.53;;
12433;SDS011;6281;49.038;8.372;2022-08-19T06:51:38;17.97;;;15.93;;
12433;SDS011;6281;49.038;8.372;2022-08-19T06:54:06;21.27;;;16.43;;
12433;SDS011;6281;49.038;8.372;2022-08-19T06:56:33;18.73;;;16.73;;
12433;SDS011;6281;49.038;8.372;2022-08-19T06:59:02;18.77;;;15.33;;
12433;SDS011;6281;49.038;8.372;2022-08-19T07:01:30;18.47;;;16.43;;
12433;SDS011;6281;49.038;8.372;2022-08-19T07:04:03;17.87;;;15.97;;
12433;SDS011;6281;49.038;8.372;2022-08-19T07:06:30;17.77;;;16.00;;
12433;SDS011;6281;49.038;8.372;2022-08-19T07:08:58;18.20;;;15.13;;
12433;SDS011;6281;49.038;8.372;2022-08-19T07:11:25;17.47;;;15.67;;
12433;SDS011;6281;49.038;8.372;2022-08-19T07:13:52;18.83;;;16.27;;
12433;SDS011;6281;49.038;8.372;2022-08-19T07:16:21;17.73;;;15.93;;
12433;SDS011;6281;49.038;8.372;2022-08-19T07:18:49;17.80;;;15.37;;
12433;SDS011;6281;49.038;8.372;2022-08-19T07:21:18;20.17;;;15.70;;
12433;SDS011;6281;49.038;8.372;2022-08-19T07:23:46;19.07;;;16.03;;
12433;SDS011;6281;49.038;8.372;2022-08-19T07:26:14;16.57;;;14.77;;
12433;SDS011;6281;49.038;8.372;2022-08-19T07:28:44;17.97;;;14.67;;
12433;SDS011;6281;49.038;8.372;2022-08-19T07:31:12;15.43;;;13.83;;
12433;SDS011;6281;49.038;8.372;2022-08-19T07:33:41;16.07;;;14.30;;
12433;SDS011;6281;49.038;8.372;2022-08-19T07:36:09;16.30;;;14.70;;
12433;SDS011;6281;49.038;8.372;2022-08-19T07:38:39;16.17;;;14.37;;
12433;SDS011;6281;49.038;8.372;2022-08-19T07:41:09;16.90;;;15.20;;
12433;SDS011;6281;49.038;8.372;2022-08-19T07:43:38;15.23;;;13.63;;
12433;SDS011;6281;49.038;8.372;2022-08-19T07:46:05;16.20;;;14.47;;
12433;SDS011;6281;49.038;8.372;2022-08-19T07:48:34;15.13;;;13.57;;
12433;SDS011;6281;49.038;8.372;2022-08-19T07:51:03;15.47;;;14.00;;
12433;SDS011;6281;49.038;8.372;2022-08-19T07:53:33;16.67;;;14.07;;
12433;SDS011;6281;49.038;8.372;2022-08-19T07:56:02;15.03;;;13.37;;
12433;SDS011;6281;49.038;8.372;2022-08-19T07:58:30;14.27;;;12.80;;
12433;SDS011;6281;49.038;8.372;2022-08-19T08:00:58;14.27;;;12.80;;
12433;SDS011;6281;49.038;8.372;2022-08-19T08:03:27;13.00;;;11.57;;
12433;SDS011;6281;49.038;8.372;2022-08-19T08:06:10;15.40;;;12.10;;
12433;SDS011;6281;49.038;8.372;2022-08-19T08:08:54;13.57;;;12.23;;
12433;SDS011;6281;49.038;8.372;2022-08-19T08:11:43;13.93;;;11.87;;
12433;SDS011;6281;49.038;8.372;2022-08-19T08:14:14;14.07;;;12.43;;
12433;SDS011;6281;49.038;8.372;2022-08-19T08:16:42;14.23;;;11.97;;
12433;SDS011;6281;49.038;8.372;2022-08-19T08:19:10;13.47;;;12.13;;
12433;SDS011;6281;49.038;8.372;2022-08-19T08:21:41;12.43;;;11.13;;
12433;SDS011;6281;49.038;8.372;2022-08-19T08:24:08;12.00;;;10.73;;
12433;SDS011;6281;49.038;8.372;2022-08-19T08:26:37;12.30;;;11.10;;
12433;SDS011;6281;49.038;8.372;2022-08-19T08:29:04;12.10;;;10.90;;
12433;SDS011;6281;49.038;8.372;2022-08-19T08:31:32;11.90;;;10.70;;
12433;SDS011;6281;49.038;8.372;2022-08-19T08:33:59;14.23;;;10.40;;
12433;SDS011;6281;49.038;8.372;2022-08-19T08:36:26;12.67;;;10.77;;
12433;SDS011;6281;49.038;8.372;2022-08-19T08:38:54;11.27;;;10.03;;
12433;SDS011;6281;49.038;8.372;2022-08-19T08:41:23;16.23;;;10.57;;
12433;SDS011;6281;49.038;8.372;2022-08-19T08:43:56;10.27;;;9.10;;
12433;SDS011;6281;49.038;8.372;2022-08-19T08:46:25;11.20;;;10.00;;
12433;SDS011;6281;49.038;8.372;2022-08-19T08:48:57;10.70;;;9.60;;
12433;SDS011;6281;49.038;8.372;2022-08-19T08:51:31;12.07;;;9.03;;
12433;SDS011;6281;49.038;8.372;2022-08-19T08:54:02;9.27;;;8.30;;
12433;SDS011;6281;49.038;8.372;2022-08-19T08:56:33;11.40;;;8.90;;
12433;SDS011;6281;49.038;8.372;2022-08-19T08:59:02;9.47;;;8.50;;
12433;SDS011;6281;49.038;8.372;2022-08-19T09:01:33;9.80;;;8.80;;
12433;SDS011;6281;49.038;8.372;2022-08-19T09:04:02;10.17;;;8.53;;
12433;SDS011;6281;49.038;8.372;2022-08-19T09:06:32;8.30;;;7.43;;
12433;SDS011;6281;49.038;8.372;2022-08-19T09:09:09;8.80;;;7.90;;
12433;SDS011;6281;49.038;8.372;2022-08-19T09:11:46;12.23;;;7.87;;
12433;SDS011;6281;49.038;8.372;2022-08-19T09:14:32;7.33;;;6.63;;
12433;SDS011;6281;49.038;8.372;2022-08-19T09:17:06;9.50;;;8.20;;
12433;SDS011;6281;49.038;8.372;2022-08-19T09:19:34;8.57;;;7.37;;
12433;SDS011;6281;49.038;8.372;2022-08-19T09:22:02;7.38;;;6.68;;
12433;SDS011;6281;49.038;8.372;2022-08-19T09:24:31;7.68;;;7.07;;
12433;SDS011;6281;49.038;8.372;2022-08-19T09:26:58;7.68;;;6.47;;
12433;SDS011;6281;49.038;8.372;2022-08-19T09:29:25;7.72;;;6.32;;
12433;SDS011;6281;49.038;8.372;2022-08-19T09:31:52;9.70;;;7.30;;
12433;SDS011;6281;49.038;8.372;2022-08-19T09:34:19;8.27;;;6.80;;
12433;SDS011;6281;49.038;8.372;2022-08-19T09:36:46;7.82;;;7.03;;
12433;SDS011;6281;49.038;8.372;2022-08-19T09:39:18;8.82;;;7.07;;
12433;SDS011;6281;49.038;8.372;2022-08-19T09:41:47;7.47;;;6.78;;
12433;SDS011;6281;49.038;8.372;2022-08-19T09:44:14;7.97;;;6.55;;
12433;SDS011;6281;49.038;8.372;2022-08-19T09:46:41;6.60;;;6.00;;
12433;SDS011;6281;49.038;8.372;2022-08-19T09:49:08;8.43;;;6.50;;
12433;SDS011;6281;49.038;8.372;2022-08-19T09:51:35;7.70;;;6.00;;
12433;SDS011;6281;49.038;8.372;2022-08-19T09:54:02;7.03;;;6.25;;
12433;SDS011;6281;49.038;8.372;2022-08-19T09:56:31;7.15;;;6.45;;
12433;SDS011;6281;49.038;8.372;2022-08-19T09:59:00;7.15;;;6.45;;
12433;SDS011;6281;49.038;8.372;2022-08-19T10:01:28;7.20;;;6.50;;
12433;SDS011;6281;49.038;8.372;2022-08-19T10:03:58;8.10;;;6.85;;
12433;SDS011;6281;49.038;8.372;2022-08-19T10:06:27;8.07;;;6.32;;
12433;SDS011;6281;49.038;8.372;2022-08-19T10:08:57;6.40;;;5.75;;
12433;SDS011;6281;49.038;8.372;2022-08-19T10:11:24;8.23;;;7.30;;
12433;SDS011;6281;49.038;8.372;2022-08-19T10:13:52;6.85;;;6.20;;
12433;SDS011;6281;49.038;8.372;2022-08-19T10:16:21;6.97;;;5.93;;
12433;SDS011;6281;49.038;8.372;2022-08-19T10:18:50;5.85;;;5.25;;
12433;SDS011;6281;49.038;8.372;2022-08-19T10:21:19;6.40;;;5.70;;
12433;SDS011;6281;49.038;8.372;2022-08-19T10:23:50;6.63;;;6.00;;
12433;SDS011;6281;49.038;8.372;2022-08-19T10:26:19;9.25;;;5.43;;
12433;SDS011;6281;49.038;8.372;2022-08-19T10:28:47;8.60;;;6.50;;
12433;SDS011;6281;49.038;8.372;2022-08-19T10:31:16;6.70;;;6.10;;
12433;SDS011;6281;49.038;8.372;2022-08-19T10:33:47;8.18;;;5.82;;
12433;SDS011;6281;49.038;8.372;2022-08-19T10:36:14;6.50;;;5.90;;
12433;SDS011;6281;49.038;8.372;2022-08-19T10:38:43;7.90;;;7.07;;
12433;SDS011;6281;49.038;8.372;2022-08-19T10:41:12;7.05;;;5.78;;
12433;SDS011;6281;49.038;8.372;2022-08-19T10:43:41;6.65;;;5.95;;
12433;SDS011;6281;49.038;8.372;2022-08-19T10:46:11;6.95;;;6.28;;
12433;SDS011;6281;49.038;8.372;2022-08-19T10:48:40;8.70;;;6.85;;
12433;SDS011;6281;49.038;8.372;2022-08-19T10:51:09;7.35;;;6.28;;
12433;SDS011;6281;49.038;8.372;2022-08-19T10:53:54;7.75;;;6.95;;
12433;SDS011;6281;49.038;8.372;2022-08-19T10:56:21;7.82;;;7.03;;
12433;SDS011;6281;49.038;8.372;2022-08-19T10:59:05;8.13;;;7.35;;
12433;SDS011;6281;49.038;8.372;2022-08-19T11:01:33;8.95;;;7.25;;
12433;SDS011;6281;49.038;8.372;2022-08-19T11:04:01;7.30;;;6.63;;
12433;SDS011;6281;49.038;8.372;2022-08-19T11:06:32;7.28;;;6.35;;
12433;SDS011;6281;49.038;8.372;2022-08-19T11:08:59;7.50;;;6.80;;
12433;SDS011;6281;49.038;8.372;2022-08-19T11:11:26;7.25;;;6.65;;
12433;SDS011;6281;49.038;8.372;2022-08-19T11:13:54;10.52;;;7.32;;
12433;SDS011;6281;49.038;8.372;2022-08-19T11:16:22;8.40;;;7.50;;
12433;SDS011;6281;49.038;8.372;2022-08-19T11:18:53;7.32;;;6.50;;
12433;SDS011;6281;49.038;8.372;2022-08-19T11:21:24;7.20;;;6.10;;
12433;SDS011;6281;49.038;8.372;2022-08-19T11:23:54;6.65;;;5.95;;
12433;SDS011;6281;49.038;8.372;2022-08-19T11:26:23;7.18;;;6.50;;
12433;SDS011;6281;49.038;8.372;2022-08-19T11:28:51;7.35;;;6.65;;
12433;SDS011;6281;49.038;8.372;2022-08-19T11:31:20;8.15;;;7.35;;
12433;SDS011;6281;49.038;8.372;2022-08-19T11:33:48;8.27;;;7.57;;
12433;SDS011;6281;49.038;8.372;2022-08-19T11:36:15;6.95;;;6.22;;
12433;SDS011;6281;49.038;8.372;2022-08-19T11:38:43;6.95;;;6.25;;
12433;SDS011;6281;49.038;8.372;2022-08-19T11:41:15;6.10;;;5.60;;
12433;SDS011;6281;49.038;8.372;2022-08-19T11:43:42;6.13;;;5.45;;
12433;SDS011;6281;49.038;8.372;2022-08-19T11:46:11;7.32;;;5.68;;
12433;SDS011;6281;49.038;8.372;2022-08-19T11:48:40;6.43;;;5.82;;
12433;SDS011;6281;49.038;8.372;2022-08-19T11:51:08;9.32;;;6.47;;
12433;SDS011;6281;49.038;8.372;2022-08-19T11:53:37;6.45;;;5.95;;
12433;SDS011;6281;49.038;8.372;2022-08-19T11:56:05;6.32;;;5.72;;
12433;SDS011;6281;49.038;8.372;2022-08-19T11:58:35;6.53;;;5.93;;
12433;SDS011;6281;49.038;8.372;2022-08-19T12:01:04;6.60;;;6.10;;
12433;SDS011;6281;49.038;8.372;2022-08-19T12:03:31;7.55;;;6.85;;
12433;SDS011;6281;49.038;8.372;2022-08-19T12:05:58;6.88;;;6.28;;
12433;SDS011;6281;49.038;8.372;2022-08-19T12:08:30;6.25;;;5.82;;
12433;SDS011;6281;49.038;8.372;2022-08-19T12:10:57;7.18;;;6.53;;
12433;SDS011;6281;49.038;8.372;2022-08-19T12:13:26;6.70;;;6.00;;
12433;SDS011;6281;49.038;8.372;2022-08-19T12:15:55;7.60;;;6.38;;
12433;SDS011;6281;49.038;8.372;2022-08-19T12:18:23;6.68;;;6.07;;
12433;SDS011;6281;49.038;8.372;2022-08-19T12:20:51;7.93;;;6.13;;
12433;SDS011;6281;49.038;8.372;2022-08-19T12:23:19;8.32;;;6.30;;
12433;SDS011;6281;49.038;8.372;2022-08-19T12:25:47;10.68;;;6.63;;
12433;SDS011;6281;49.038;8.372;2022-08-19T12:28:17;7.57;;;6.93;;
12433;SDS011;6281;49.038;8.372;2022-08-19T12:30:44;6.47;;;5.88;;
12433;SDS011;6281;49.038;8.372;2022-08-19T12:33:13;6.82;;;5.85;;
12433;SDS011;6281;49.038;8.372;2022-08-19T12:35:41;6.13;;;5.50;;
12433;SDS011;6281;49.038;8.372;2022-08-19T12:38:08;6.50;;;6.00;;
12433;SDS011;6281;49.038;8.372;2022-08-19T12:40:36;7.07;;;5.88;;
12433;SDS011;6281;49.038;8.372;2022-08-19T12:43:05;6.68;;;5.80;;
12433;SDS011;6281;49.038;8.372;2022-08-19T12:45:32;6.60;;;5.15;;
12433;SDS011;6281;49.038;8.372;2022-08-19T12:48:00;7.00;;;5.72;;
12433;SDS011;6281;49.038;8.372;2022-08-19T12:50:29;6.07;;;5.35;;
12433;SDS011;6281;49.038;8.372;2022-08-19T12:52:56;7.63;;;5.85;;
12433;SDS011;6281;49.038;8.372;2022-08-19T12:55:23;5.85;;;5.18;;
12433;SDS011;6281;49.038;8.372;2022-08-19T12:57:53;6.60;;;5.32;;
12433;SDS011;6281;49.038;8.372;2022-08-19T13:00:21;5.03;;;4.60;;
12433;SDS011;6281;49.038;8.372;2022-08-19T13:02:49;5.25;;;4.47;;
12433;SDS011;6281;49.038;8.372;2022-08-19T13:05:18;5.30;;;4.80;;
12433;SDS011;6281;49.038;8.372;2022-08-19T13:07:49;4.72;;;4.32;;
12433;SDS011;6281;49.038;8.372;2022-08-19T13:10:20;4.40;;;4.05;;
12433;SDS011;6281;49.038;8.372;2022-08-19T13:12:48;4.88;;;4.47;;
12433;SDS011;6281;49.038;8.372;2022-08-19T13:15:17;4.70;;;4.15;;
12433;SDS011;6281;49.038;8.372;2022-08-19T13:17:45;4.38;;;3.97;;
12433;SDS011;6281;49.038;8.372;2022-08-19T13:20:13;5.20;;;3.60;;
12433;SDS011;6281;49.038;8.372;2022-08-19T13:22:41;3.85;;;3.55;;
12433;SDS011;6281;49.038;8.372;2022-08-19T13:25:11;3.60;;;3.13;;
12433;SDS011;6281;49.038;8.372;2022-08-19T13:27:41;5.28;;;3.50;;
12433;SDS011;6281;49.038;8.372;2022-08-19T13:30:09;4.55;;;4.25;;
12433;SDS011;6281;49.038;8.372;2022-08-19T13:32:55;4.50;;;4.10;;
12433;SDS011;6281;49.038;8.372;2022-08-19T13:35:37;4.30;;;3.67;;
12433;SDS011;6281;49.038;8.372;2022-08-19T13:38:04;3.70;;;3.40;;
12433;SDS011;6281;49.038;8.372;2022-08-19T13:40:33;3.30;;;3.00;;
12433;SDS011;6281;49.038;8.372;2022-08-19T13:43:01;3.40;;;2.90;;
12433;SDS011;6281;49.038;8.372;2022-08-19T13:45:29;3.40;;;2.92;;
12433;SDS011;6281;49.038;8.372;2022-08-19T13:47:57;4.78;;;3.45;;
12433;SDS011;6281;49.038;8.372;2022-08-19T13:50:29;3.55;;;3.25;;
12433;SDS011;6281;49.038;8.372;2022-08-19T13:52:57;3.33;;;3.03;;
12433;SDS011;6281;49.038;8.372;2022-08-19T13:55:25;3.55;;;3.08;;
12433;SDS011;6281;49.038;8.372;2022-08-19T13:57:54;5.55;;;3.40;;
12433;SDS011;6281;49.038;8.372;2022-08-19T14:00:23;3.72;;;3.42;;
12433;SDS011;6281;49.038;8.372;2022-08-19T14:02:52;3.67;;;3.38;;
12433;SDS011;6281;49.038;8.372;2022-08-19T14:05:21;4.25;;;3.58;;
12433;SDS011;6281;49.038;8.372;2022-08-19T14:07:48;4.60;;;3.58;;
12433;SDS011;6281;49.038;8.372;2022-08-19T14:10:15;4.88;;;3.60;;
12433;SDS011;6281;49.038;8.372;2022-08-19T14:12:43;3.78;;;3.47;;
12433;SDS011;6281;49.038;8.372;2022-08-19T14:15:12;4.25;;;3.88;;
12433;SDS011;6281;49.038;8.372;2022-08-19T14:17:41;3.95;;;3.65;;
12433;SDS011;6281;49.038;8.372;2022-08-19T14:20:12;4.38;;;3.75;;
12433;SDS011;6281;49.038;8.372;2022-08-19T14:22:40;3.80;;;3.47;;
12433;SDS011;6281;49.038;8.372;2022-08-19T14:25:09;4.20;;;3.80;;
12433;SDS011;6281;49.038;8.372;2022-08-19T14:27:39;3.85;;;3.58;;
12433;SDS011;6281;49.038;8.372;2022-08-19T14:30:07;4.57;;;4.10;;
12433;SDS011;6281;49.038;8.372;2022-08-19T14:32:37;4.25;;;3.92;;
12433;SDS011;6281;49.038;8.372;2022-08-19T14:35:05;4.05;;;3.65;;
12433;SDS011;6281;49.038;8.372;2022-08-19T14:37:33;4.53;;;4.18;;
12433;SDS011;6281;49.038;8.372;2022-08-19T14:40:00;5.10;;;4.03;;
12433;SDS011;6281;49.038;8.372;2022-08-19T14:42:28;4.45;;;4.05;;
12433;SDS011;6281;49.038;8.372;2022-08-19T14:44:57;4.47;;;4.03;;
12433;SDS011;6281;49.038;8.372;2022-08-19T14:47:24;5.05;;;3.70;;
12433;SDS011;6281;49.038;8.372;2022-08-19T14:49:53;4.38;;;4.00;;
12433;SDS011;6281;49.038;8.372;2022-08-19T14:52:20;4.40;;;4.10;;
12433;SDS011;6281;49.038;8.372;2022-08-19T14:54:47;4.20;;;3.90;;
12433;SDS011;6281;49.038;8.372;2022-08-19T14:57:14;4.18;;;3.80;;
12433;SDS011;6281;49.038;8.372;2022-08-19T14:59:41;4.40;;;4.00;;